sensor_id;sensor_type;location;lat;lon;timestamp;temperature;humidity
22073;DHT22;11202;50.916;4.698;2022-11-15T00:01:54;11.70;99.90
22073;DHT22;11202;50.916;4.698;2022-11-15T00:04:20;11.80;99.90
22073;DHT22;11202;50.916;4.698;2022-11-15T00:06:45;11.80;99.90
22073;DHT22;11202;50.916;4.698;2022-11-15T00:09:11;11.70;99.90
22073;DHT22;11202;50.916;4.698;2022-11-15T00:11:37;11.70;99.90
22073;DHT22;11202;50.916;4.698;2022-11-15T00:14:02;11.70;99.90
22073;DHT22;11202;50.916;4.698;2022-11-15T00:16:28;11.70;99.90
22073;DHT22;11202;50.916;4.698;2022-11-15T00:18:56;11.70;99.90
22073;DHT22;11202;50.916;4.698;2022-11-15T00:21:25;11.80;99.90
22073;DHT22;11202;50.916;4.698;2022-11-15T00:23:51;11.90;99.90
22073;DHT22;11202;50.916;4.698;2022-11-15T00:26:16;12.00;99.90
22073;DHT22;11202;50.916;4.698;2022-11-15T00:28:42;12.00;99.90
22073;DHT22;11202;50.916;4.698;2022-11-15T00:31:11;11.90;99.90
22073;DHT22;11202;50.916;4.698;2022-11-15T00:33:37;12.10;99.90
22073;DHT22;11202;50.916;4.698;2022-11-15T00:36:07;12.10;99.90
22073;DHT22;11202;50.916;4.698;2022-11-15T00:38:38;12.10;99.90
22073;DHT22;11202;50.916;4.698;2022-11-15T00:41:05;12.20;99.90
22073;DHT22;11202;50.916;4.698;2022-11-15T00:43:32;12.30;99.90
22073;DHT22;11202;50.916;4.698;2022-11-15T00:45:58;12.30;99.90
22073;DHT22;11202;50.916;4.698;2022-11-15T00:48:24;12.40;99.90
22073;DHT22;11202;50.916;4.698;2022-11-15T00:50:51;12.40;99.90
22073;DHT22;11202;50.916;4.698;2022-11-15T00:53:20;12.30;99.90
22073;DHT22;11202;50.916;4.698;2022-11-15T00:55:46;12.30;99.90
22073;DHT22;11202;50.916;4.698;2022-11-15T00:58:14;12.40;99.90
22073;DHT22;11202;50.916;4.698;2022-11-15T01:00:40;12.40;99.90
22073;DHT22;11202;50.916;4.698;2022-11-15T01:03:08;12.40;99.90
22073;DHT22;11202;50.916;4.698;2022-11-15T01:05:36;12.40;99.90
22073;DHT22;11202;50.916;4.698;2022-11-15T01:08:01;12.40;99.90
22073;DHT22;11202;50.916;4.698;2022-11-15T01:10:27;12.50;99.90
22073;DHT22;11202;50.916;4.698;2022-11-15T01:12:53;12.50;99.90
22073;DHT22;11202;50.916;4.698;2022-11-15T01:15:18;12.40;99.90
22073;DHT22;11202;50.916;4.698;2022-11-15T01:17:44;12.40;99.90
22073;DHT22;11202;50.916;4.698;2022-11-15T01:20:10;12.40;99.90
22073;DHT22;11202;50.916;4.698;2022-11-15T01:22:36;12.30;99.90
22073;DHT22;11202;50.916;4.698;2022-11-15T01:25:01;12.30;99.90
22073;DHT22;11202;50.916;4.698;2022-11-15T01:27:27;12.50;99.90
22073;DHT22;11202;50.916;4.698;2022-11-15T01:29:58;12.50;99.90
22073;DHT22;11202;50.916;4.698;2022-11-15T01:32:23;12.40;99.90
22073;DHT22;11202;50.916;4.698;2022-11-15T01:34:51;12.30;99.90
22073;DHT22;11202;50.916;4.698;2022-11-15T01:37:17;12.30;99.90
22073;DHT22;11202;50.916;4.698;2022-11-15T01:39:42;12.30;99.90
22073;DHT22;11202;50.916;4.698;2022-11-15T01:42:12;12.40;99.90
22073;DHT22;11202;50.916;4.698;2022-11-15T01:44:51;12.60;99.90
22073;DHT22;11202;50.916;4.698;2022-11-15T01:49:59;12.70;99.90
22073;DHT22;11202;50.916;4.698;2022-11-15T01:52:28;12.70;99.90
22073;DHT22;11202;50.916;4.698;2022-11-15T01:55:00;12.60;99.90
22073;DHT22;11202;50.916;4.698;2022-11-15T01:57:27;12.50;99.90
22073;DHT22;11202;50.916;4.698;2022-11-15T01:59:54;12.40;99.90
22073;DHT22;11202;50.916;4.698;2022-11-15T02:02:22;12.60;99.90
22073;DHT22;11202;50.916;4.698;2022-11-15T02:04:51;12.40;99.90
22073;DHT22;11202;50.916;4.698;2022-11-15T02:07:18;12.50;99.90
22073;DHT22;11202;50.916;4.698;2022-11-15T02:09:47;12.60;99.90
22073;DHT22;11202;50.916;4.698;2022-11-15T02:12:17;12.70;99.90
22073;DHT22;11202;50.916;4.698;2022-11-15T02:14:44;12.70;99.90
22073;DHT22;11202;50.916;4.698;2022-11-15T02:20:32;12.70;99.90
22073;DHT22;11202;50.916;4.698;2022-11-15T02:40:04;12.70;99.90
22073;DHT22;11202;50.916;4.698;2022-11-15T02:42:36;12.70;99.90
22073;DHT22;11202;50.916;4.698;2022-11-15T02:45:27;12.70;99.90
22073;DHT22;11202;50.916;4.698;2022-11-15T02:47:55;12.80;99.90
22073;DHT22;11202;50.916;4.698;2022-11-15T02:50:25;12.80;99.90
22073;DHT22;11202;50.916;4.698;2022-11-15T02:52:52;12.70;99.90
22073;DHT22;11202;50.916;4.698;2022-11-15T02:55:33;12.70;99.90
22073;DHT22;11202;50.916;4.698;2022-11-15T03:00:47;12.80;99.90
22073;DHT22;11202;50.916;4.698;2022-11-15T03:03:24;12.90;99.90
22073;DHT22;11202;50.916;4.698;2022-11-15T03:06:22;12.80;99.90
22073;DHT22;11202;50.916;4.698;2022-11-15T03:09:03;12.80;99.90
22073;DHT22;11202;50.916;4.698;2022-11-15T03:11:33;12.70;99.90
22073;DHT22;11202;50.916;4.698;2022-11-15T03:19:46;12.50;99.90
22073;DHT22;11202;50.916;4.698;2022-11-15T03:22:16;12.60;99.90
22073;DHT22;11202;50.916;4.698;2022-11-15T03:24:47;12.50;99.90
22073;DHT22;11202;50.916;4.698;2022-11-15T03:27:17;12.70;99.90
22073;DHT22;11202;50.916;4.698;2022-11-15T03:29:56;12.70;99.90
22073;DHT22;11202;50.916;4.698;2022-11-15T03:32:28;12.70;99.90
22073;DHT22;11202;50.916;4.698;2022-11-15T03:35:12;12.70;99.90
22073;DHT22;11202;50.916;4.698;2022-11-15T03:37:43;12.80;99.90
22073;DHT22;11202;50.916;4.698;2022-11-15T03:40:10;12.90;99.90
22073;DHT22;11202;50.916;4.698;2022-11-15T03:42:42;12.70;99.90
22073;DHT22;11202;50.916;4.698;2022-11-15T03:45:19;12.60;99.90
22073;DHT22;11202;50.916;4.698;2022-11-15T03:47:53;12.70;99.90
22073;DHT22;11202;50.916;4.698;2022-11-15T03:50:26;12.80;99.90
22073;DHT22;11202;50.916;4.698;2022-11-15T03:52:54;12.90;99.90
22073;DHT22;11202;50.916;4.698;2022-11-15T03:55:21;12.90;99.90
22073;DHT22;11202;50.916;4.698;2022-11-15T03:57:52;12.80;99.90
22073;DHT22;11202;50.916;4.698;2022-11-15T04:00:19;12.60;99.90
22073;DHT22;11202;50.916;4.698;2022-11-15T04:02:45;12.50;99.90
22073;DHT22;11202;50.916;4.698;2022-11-15T04:05:11;12.40;99.90
22073;DHT22;11202;50.916;4.698;2022-11-15T04:07:36;12.40;99.90
22073;DHT22;11202;50.916;4.698;2022-11-15T04:10:03;12.40;99.90
22073;DHT22;11202;50.916;4.698;2022-11-15T04:12:34;12.40;99.90
22073;DHT22;11202;50.916;4.698;2022-11-15T04:15:06;12.50;99.90
22073;DHT22;11202;50.916;4.698;2022-11-15T04:20:22;12.40;99.90
22073;DHT22;11202;50.916;4.698;2022-11-15T04:23:11;12.30;99.90
22073;DHT22;11202;50.916;4.698;2022-11-15T04:25:58;12.40;99.90
22073;DHT22;11202;50.916;4.698;2022-11-15T04:28:24;12.30;99.90
22073;DHT22;11202;50.916;4.698;2022-11-15T04:30:52;12.30;99.90
22073;DHT22;11202;50.916;4.698;2022-11-15T04:33:21;12.30;99.90
22073;DHT22;11202;50.916;4.698;2022-11-15T04:35:47;12.30;99.90
22073;DHT22;11202;50.916;4.698;2022-11-15T04:38:33;12.20;99.90
22073;DHT22;11202;50.916;4.698;2022-11-15T04:40:59;12.20;99.90
22073;DHT22;11202;50.916;4.698;2022-11-15T04:43:27;12.00;99.90
22073;DHT22;11202;50.916;4.698;2022-11-15T04:45:53;12.10;99.90
22073;DHT22;11202;50.916;4.698;2022-11-15T04:48:19;12.10;99.90
22073;DHT22;11202;50.916;4.698;2022-11-15T04:50:47;12.10;99.90
22073;DHT22;11202;50.916;4.698;2022-11-15T04:53:15;12.10;99.90
22073;DHT22;11202;50.916;4.698;2022-11-15T04:55:45;12.10;99.90
22073;DHT22;11202;50.916;4.698;2022-11-15T04:58:11;12.00;99.90
22073;DHT22;11202;50.916;4.698;2022-11-15T05:00:36;12.10;99.90
22073;DHT22;11202;50.916;4.698;2022-11-15T05:03:02;12.20;99.90
22073;DHT22;11202;50.916;4.698;2022-11-15T05:05:46;12.10;99.90
22073;DHT22;11202;50.916;4.698;2022-11-15T05:08:14;12.00;99.90
22073;DHT22;11202;50.916;4.698;2022-11-15T05:10:40;11.90;99.90
22073;DHT22;11202;50.916;4.698;2022-11-15T05:13:08;11.90;99.90
22073;DHT22;11202;50.916;4.698;2022-11-15T05:15:33;11.80;99.90
22073;DHT22;11202;50.916;4.698;2022-11-15T05:17:59;11.80;99.90
22073;DHT22;11202;50.916;4.698;2022-11-15T05:20:25;11.80;99.90
22073;DHT22;11202;50.916;4.698;2022-11-15T05:22:53;11.80;99.90
22073;DHT22;11202;50.916;4.698;2022-11-15T05:25:19;11.70;99.90
22073;DHT22;11202;50.916;4.698;2022-11-15T05:27:44;11.70;99.90
22073;DHT22;11202;50.916;4.698;2022-11-15T05:30:10;11.70;99.90
22073;DHT22;11202;50.916;4.698;2022-11-15T05:32:36;11.70;99.90
22073;DHT22;11202;50.916;4.698;2022-11-15T05:35:02;11.70;99.90
22073;DHT22;11202;50.916;4.698;2022-11-15T05:37:30;11.70;99.90
22073;DHT22;11202;50.916;4.698;2022-11-15T05:39:57;11.70;99.90
22073;DHT22;11202;50.916;4.698;2022-11-15T05:42:24;11.60;99.90
22073;DHT22;11202;50.916;4.698;2022-11-15T05:44:50;11.60;99.90
22073;DHT22;11202;50.916;4.698;2022-11-15T05:47:22;11.60;99.90
22073;DHT22;11202;50.916;4.698;2022-11-15T05:49:51;11.60;99.90
22073;DHT22;11202;50.916;4.698;2022-11-15T05:52:21;11.60;99.90
22073;DHT22;11202;50.916;4.698;2022-11-15T05:54:48;11.70;99.90
22073;DHT22;11202;50.916;4.698;2022-11-15T05:57:13;11.60;99.90
22073;DHT22;11202;50.916;4.698;2022-11-15T05:59:39;11.50;99.90
22073;DHT22;11202;50.916;4.698;2022-11-15T06:02:06;11.50;99.90
22073;DHT22;11202;50.916;4.698;2022-11-15T06:04:32;11.30;99.90
22073;DHT22;11202;50.916;4.698;2022-11-15T06:06:58;11.40;99.90
22073;DHT22;11202;50.916;4.698;2022-11-15T06:09:24;11.40;99.90
22073;DHT22;11202;50.916;4.698;2022-11-15T06:11:52;11.30;99.90
22073;DHT22;11202;50.916;4.698;2022-11-15T06:14:17;11.40;99.90
22073;DHT22;11202;50.916;4.698;2022-11-15T06:16:43;11.30;99.90
22073;DHT22;11202;50.916;4.698;2022-11-15T06:19:09;11.40;99.90
22073;DHT22;11202;50.916;4.698;2022-11-15T06:21:35;11.30;99.90
22073;DHT22;11202;50.916;4.698;2022-11-15T06:24:03;11.40;99.90
22073;DHT22;11202;50.916;4.698;2022-11-15T06:26:29;11.30;99.90
22073;DHT22;11202;50.916;4.698;2022-11-15T06:28:55;11.20;99.90
22073;DHT22;11202;50.916;4.698;2022-11-15T06:31:21;11.20;99.90
22073;DHT22;11202;50.916;4.698;2022-11-15T06:33:46;11.20;99.90
22073;DHT22;11202;50.916;4.698;2022-11-15T06:36:13;11.00;99.90
22073;DHT22;11202;50.916;4.698;2022-11-15T06:38:44;10.90;99.90
22073;DHT22;11202;50.916;4.698;2022-11-15T06:41:11;10.80;99.90
22073;DHT22;11202;50.916;4.698;2022-11-15T06:43:37;10.80;99.90
22073;DHT22;11202;50.916;4.698;2022-11-15T06:46:05;10.80;99.90
22073;DHT22;11202;50.916;4.698;2022-11-15T06:48:31;11.00;99.90
22073;DHT22;11202;50.916;4.698;2022-11-15T06:50:58;10.90;99.90
22073;DHT22;11202;50.916;4.698;2022-11-15T06:53:24;10.90;99.90
22073;DHT22;11202;50.916;4.698;2022-11-15T06:55:51;10.90;99.90
22073;DHT22;11202;50.916;4.698;2022-11-15T06:58:20;10.90;99.90
22073;DHT22;11202;50.916;4.698;2022-11-15T07:00:46;10.90;99.90
22073;DHT22;11202;50.916;4.698;2022-11-15T07:03:12;10.90;99.90
22073;DHT22;11202;50.916;4.698;2022-11-15T07:05:37;10.80;99.90
22073;DHT22;11202;50.916;4.698;2022-11-15T07:08:05;10.80;99.90
22073;DHT22;11202;50.916;4.698;2022-11-15T07:10:31;10.90;99.90
22073;DHT22;11202;50.916;4.698;2022-11-15T07:12:57;10.90;99.90
22073;DHT22;11202;50.916;4.698;2022-11-15T07:15:26;10.80;99.90
22073;DHT22;11202;50.916;4.698;2022-11-15T07:17:52;10.70;99.90
22073;DHT22;11202;50.916;4.698;2022-11-15T07:20:18;10.60;99.90
22073;DHT22;11202;50.916;4.698;2022-11-15T07:22:44;10.70;99.90
22073;DHT22;11202;50.916;4.698;2022-11-15T07:25:14;10.70;99.90
22073;DHT22;11202;50.916;4.698;2022-11-15T07:27:40;10.50;99.90
22073;DHT22;11202;50.916;4.698;2022-11-15T07:30:06;10.60;99.90
22073;DHT22;11202;50.916;4.698;2022-11-15T07:32:32;10.60;99.90
22073;DHT22;11202;50.916;4.698;2022-11-15T07:35:02;10.70;99.90
22073;DHT22;11202;50.916;4.698;2022-11-15T07:37:27;10.70;99.90
22073;DHT22;11202;50.916;4.698;2022-11-15T07:39:55;10.80;99.90
22073;DHT22;11202;50.916;4.698;2022-11-15T07:42:21;10.70;99.90
22073;DHT22;11202;50.916;4.698;2022-11-15T07:45:05;10.70;99.90
22073;DHT22;11202;50.916;4.698;2022-11-15T07:47:31;10.80;99.90
22073;DHT22;11202;50.916;4.698;2022-11-15T07:49:56;10.80;99.90
22073;DHT22;11202;50.916;4.698;2022-11-15T07:52:22;10.70;99.90
22073;DHT22;11202;50.916;4.698;2022-11-15T07:54:47;10.80;99.90
22073;DHT22;11202;50.916;4.698;2022-11-15T07:57:13;10.80;99.90
22073;DHT22;11202;50.916;4.698;2022-11-15T07:59:39;11.00;99.90
22073;DHT22;11202;50.916;4.698;2022-11-15T08:02:04;11.20;99.90
22073;DHT22;11202;50.916;4.698;2022-11-15T08:04:30;11.50;99.90
22073;DHT22;11202;50.916;4.698;2022-11-15T08:06:56;11.70;99.90
22073;DHT22;11202;50.916;4.698;2022-11-15T08:09:22;11.90;99.90
22073;DHT22;11202;50.916;4.698;2022-11-15T08:11:48;12.10;99.90
22073;DHT22;11202;50.916;4.698;2022-11-15T08:14:13;12.50;99.90
22073;DHT22;11202;50.916;4.698;2022-11-15T08:16:39;12.70;99.90
22073;DHT22;11202;50.916;4.698;2022-11-15T08:19:04;13.10;99.90
22073;DHT22;11202;50.916;4.698;2022-11-15T08:21:30;13.30;99.90
22073;DHT22;11202;50.916;4.698;2022-11-15T08:23:55;13.60;99.90
22073;DHT22;11202;50.916;4.698;2022-11-15T08:26:21;13.70;99.90
22073;DHT22;11202;50.916;4.698;2022-11-15T08:28:50;13.90;99.90
22073;DHT22;11202;50.916;4.698;2022-11-15T08:31:19;13.70;99.90
22073;DHT22;11202;50.916;4.698;2022-11-15T08:33:45;13.50;99.90
22073;DHT22;11202;50.916;4.698;2022-11-15T08:36:15;13.40;99.90
22073;DHT22;11202;50.916;4.698;2022-11-15T08:38:42;13.50;99.90
22073;DHT22;11202;50.916;4.698;2022-11-15T08:41:16;13.70;99.90
22073;DHT22;11202;50.916;4.698;2022-11-15T08:43:44;13.30;99.90
22073;DHT22;11202;50.916;4.698;2022-11-15T08:46:12;13.10;99.90
22073;DHT22;11202;50.916;4.698;2022-11-15T08:48:40;13.20;99.90
22073;DHT22;11202;50.916;4.698;2022-11-15T08:51:06;13.40;99.90
22073;DHT22;11202;50.916;4.698;2022-11-15T08:53:32;13.30;99.90
22073;DHT22;11202;50.916;4.698;2022-11-15T08:55:57;13.00;99.90
22073;DHT22;11202;50.916;4.698;2022-11-15T08:58:23;12.50;99.90
22073;DHT22;11202;50.916;4.698;2022-11-15T09:00:51;12.20;99.90
22073;DHT22;11202;50.916;4.698;2022-11-15T09:03:16;12.00;99.90
22073;DHT22;11202;50.916;4.698;2022-11-15T09:05:42;12.10;99.90
22073;DHT22;11202;50.916;4.698;2022-11-15T09:08:08;12.00;99.90
22073;DHT22;11202;50.916;4.698;2022-11-15T09:10:33;11.80;99.90
22073;DHT22;11202;50.916;4.698;2022-11-15T09:13:02;11.70;99.90
22073;DHT22;11202;50.916;4.698;2022-11-15T09:15:27;11.70;99.90
22073;DHT22;11202;50.916;4.698;2022-11-15T09:17:53;11.90;99.90
22073;DHT22;11202;50.916;4.698;2022-11-15T09:20:18;12.60;99.90
22073;DHT22;11202;50.916;4.698;2022-11-15T09:22:44;13.10;99.90
22073;DHT22;11202;50.916;4.698;2022-11-15T09:25:09;13.60;99.90
22073;DHT22;11202;50.916;4.698;2022-11-15T09:27:35;14.00;99.90
22073;DHT22;11202;50.916;4.698;2022-11-15T09:30:01;14.30;99.90
22073;DHT22;11202;50.916;4.698;2022-11-15T09:32:29;14.50;99.90
22073;DHT22;11202;50.916;4.698;2022-11-15T09:34:58;14.70;99.90
22073;DHT22;11202;50.916;4.698;2022-11-15T09:37:23;14.60;99.90
22073;DHT22;11202;50.916;4.698;2022-11-15T09:39:49;14.00;99.90
22073;DHT22;11202;50.916;4.698;2022-11-15T09:42:38;13.90;99.90
22073;DHT22;11202;50.916;4.698;2022-11-15T09:45:22;13.80;99.90
22073;DHT22;11202;50.916;4.698;2022-11-15T09:50:48;13.70;99.90
22073;DHT22;11202;50.916;4.698;2022-11-15T09:53:28;13.90;99.90
22073;DHT22;11202;50.916;4.698;2022-11-15T09:56:02;14.50;99.90
22073;DHT22;11202;50.916;4.698;2022-11-15T09:59:01;14.40;99.90
22073;DHT22;11202;50.916;4.698;2022-11-15T10:04:20;14.20;99.90
22073;DHT22;11202;50.916;4.698;2022-11-15T10:06:52;14.00;99.90
22073;DHT22;11202;50.916;4.698;2022-11-15T10:09:20;14.00;99.90
22073;DHT22;11202;50.916;4.698;2022-11-15T10:11:47;13.80;99.90
22073;DHT22;11202;50.916;4.698;2022-11-15T10:14:22;13.80;99.90
22073;DHT22;11202;50.916;4.698;2022-11-15T10:22:53;13.50;99.90
22073;DHT22;11202;50.916;4.698;2022-11-15T10:25:28;13.20;99.90
22073;DHT22;11202;50.916;4.698;2022-11-15T10:30:38;12.90;99.90
22073;DHT22;11202;50.916;4.698;2022-11-15T10:33:25;12.70;99.90
22073;DHT22;11202;50.916;4.698;2022-11-15T10:46:34;12.60;99.90
22073;DHT22;11202;50.916;4.698;2022-11-15T10:49:13;12.60;99.90
22073;DHT22;11202;50.916;4.698;2022-11-15T10:51:54;12.80;99.90
22073;DHT22;11202;50.916;4.698;2022-11-15T10:57:32;12.90;99.90
22073;DHT22;11202;50.916;4.698;2022-11-15T11:00:25;12.80;99.90
22073;DHT22;11202;50.916;4.698;2022-11-15T11:10:36;12.80;99.90
22073;DHT22;11202;50.916;4.698;2022-11-15T11:13:21;12.70;99.90
22073;DHT22;11202;50.916;4.698;2022-11-15T11:15:55;12.80;99.90
22073;DHT22;11202;50.916;4.698;2022-11-15T11:24:17;12.90;99.90
22073;DHT22;11202;50.916;4.698;2022-11-15T11:29:38;13.10;99.90
22073;DHT22;11202;50.916;4.698;2022-11-15T11:34:58;13.00;99.90
22073;DHT22;11202;50.916;4.698;2022-11-15T11:48:40;13.30;99.90
22073;DHT22;11202;50.916;4.698;2022-11-15T11:51:37;13.40;99.90
22073;DHT22;11202;50.916;4.698;2022-11-15T11:56:39;13.50;99.90
22073;DHT22;11202;50.916;4.698;2022-11-15T12:02:27;13.60;99.90
22073;DHT22;11202;50.916;4.698;2022-11-15T12:05:01;13.60;99.90
22073;DHT22;11202;50.916;4.698;2022-11-15T12:07:32;13.50;99.90
22073;DHT22;11202;50.916;4.698;2022-11-15T12:10:14;13.50;99.90
22073;DHT22;11202;50.916;4.698;2022-11-15T12:12:49;13.60;99.90
22073;DHT22;11202;50.916;4.698;2022-11-15T12:15:23;13.60;99.90
22073;DHT22;11202;50.916;4.698;2022-11-15T12:17:52;13.70;99.90
22073;DHT22;11202;50.916;4.698;2022-11-15T12:20:40;13.70;99.90
22073;DHT22;11202;50.916;4.698;2022-11-15T12:24:08;13.70;99.90
22073;DHT22;11202;50.916;4.698;2022-11-15T12:28:40;13.70;99.90
22073;DHT22;11202;50.916;4.698;2022-11-15T12:33:57;13.70;99.90
22073;DHT22;11202;50.916;4.698;2022-11-15T12:38:57;13.70;99.90
22073;DHT22;11202;50.916;4.698;2022-11-15T12:41:28;13.70;99.90
22073;DHT22;11202;50.916;4.698;2022-11-15T12:43:55;13.70;99.90
22073;DHT22;11202;50.916;4.698;2022-11-15T12:46:33;13.80;99.90
22073;DHT22;11202;50.916;4.698;2022-11-15T12:49:41;13.80;99.90
22073;DHT22;11202;50.916;4.698;2022-11-15T12:52:06;13.80;99.90
22073;DHT22;11202;50.916;4.698;2022-11-15T12:57:22;13.70;99.90
22073;DHT22;11202;50.916;4.698;2022-11-15T12:59:53;13.80;99.90
22073;DHT22;11202;50.916;4.698;2022-11-15T13:02:25;13.70;99.90
22073;DHT22;11202;50.916;4.698;2022-11-15T13:04:53;13.70;99.90
22073;DHT22;11202;50.916;4.698;2022-11-15T13:10:28;13.80;99.90
22073;DHT22;11202;50.916;4.698;2022-11-15T13:20:16;14.00;99.90
22073;DHT22;11202;50.916;4.698;2022-11-15T13:30:51;14.20;99.90
22073;DHT22;11202;50.916;4.698;2022-11-15T13:35:51;14.40;99.90
22073;DHT22;11202;50.916;4.698;2022-11-15T13:40:49;14.30;99.90
22073;DHT22;11202;50.916;4.698;2022-11-15T13:43:35;14.30;99.90
22073;DHT22;11202;50.916;4.698;2022-11-15T13:46:15;14.20;99.90
22073;DHT22;11202;50.916;4.698;2022-11-15T13:48:45;14.10;99.90
22073;DHT22;11202;50.916;4.698;2022-11-15T13:51:29;14.10;99.90
22073;DHT22;11202;50.916;4.698;2022-11-15T13:56:29;14.20;99.90
22073;DHT22;11202;50.916;4.698;2022-11-15T13:58:56;14.20;99.90
22073;DHT22;11202;50.916;4.698;2022-11-15T14:01:25;14.10;99.90
22073;DHT22;11202;50.916;4.698;2022-11-15T14:03:59;14.20;99.90
22073;DHT22;11202;50.916;4.698;2022-11-15T14:06:28;14.20;99.90
22073;DHT22;11202;50.916;4.698;2022-11-15T14:11:25;14.30;99.90
22073;DHT22;11202;50.916;4.698;2022-11-15T14:19:05;14.40;99.90
22073;DHT22;11202;50.916;4.698;2022-11-15T14:21:33;14.40;99.90
22073;DHT22;11202;50.916;4.698;2022-11-15T14:24:20;14.30;99.90
22073;DHT22;11202;50.916;4.698;2022-11-15T14:26:48;14.30;99.90
22073;DHT22;11202;50.916;4.698;2022-11-15T14:29:29;14.30;99.90
22073;DHT22;11202;50.916;4.698;2022-11-15T14:32:16;14.40;99.90
22073;DHT22;11202;50.916;4.698;2022-11-15T14:34:43;14.40;99.90
22073;DHT22;11202;50.916;4.698;2022-11-15T14:37:30;14.20;99.90
22073;DHT22;11202;50.916;4.698;2022-11-15T14:40:01;13.90;99.90
22073;DHT22;11202;50.916;4.698;2022-11-15T14:42:27;13.80;99.90
22073;DHT22;11202;50.916;4.698;2022-11-15T14:44:52;13.70;99.90
22073;DHT22;11202;50.916;4.698;2022-11-15T14:47:18;13.60;99.90
22073;DHT22;11202;50.916;4.698;2022-11-15T14:49:44;13.40;99.90
22073;DHT22;11202;50.916;4.698;2022-11-15T14:52:29;13.30;99.90
22073;DHT22;11202;50.916;4.698;2022-11-15T14:54:57;13.20;99.90
22073;DHT22;11202;50.916;4.698;2022-11-15T14:57:24;13.20;99.90
22073;DHT22;11202;50.916;4.698;2022-11-15T14:59:50;13.10;99.90
22073;DHT22;11202;50.916;4.698;2022-11-15T15:02:23;13.10;99.90
22073;DHT22;11202;50.916;4.698;2022-11-15T15:04:50;13.20;99.90
22073;DHT22;11202;50.916;4.698;2022-11-15T15:07:16;13.10;99.90
22073;DHT22;11202;50.916;4.698;2022-11-15T15:09:43;13.10;99.90
22073;DHT22;11202;50.916;4.698;2022-11-15T15:12:21;13.10;99.90
22073;DHT22;11202;50.916;4.698;2022-11-15T15:14:50;13.20;99.90
22073;DHT22;11202;50.916;4.698;2022-11-15T15:17:17;13.10;99.90
22073;DHT22;11202;50.916;4.698;2022-11-15T15:19:58;13.10;99.90
22073;DHT22;11202;50.916;4.698;2022-11-15T15:22:26;13.10;99.90
22073;DHT22;11202;50.916;4.698;2022-11-15T15:24:55;13.10;99.90
22073;DHT22;11202;50.916;4.698;2022-11-15T15:27:23;13.00;99.90
22073;DHT22;11202;50.916;4.698;2022-11-15T15:29:48;12.90;99.90
22073;DHT22;11202;50.916;4.698;2022-11-15T15:32:14;12.90;99.90
22073;DHT22;11202;50.916;4.698;2022-11-15T15:34:40;12.90;99.90
22073;DHT22;11202;50.916;4.698;2022-11-15T15:37:26;12.80;99.90
22073;DHT22;11202;50.916;4.698;2022-11-15T15:39:56;12.80;99.90
22073;DHT22;11202;50.916;4.698;2022-11-15T15:42:23;12.90;99.90
22073;DHT22;11202;50.916;4.698;2022-11-15T15:44:51;12.80;99.90
22073;DHT22;11202;50.916;4.698;2022-11-15T15:47:22;12.90;99.90
22073;DHT22;11202;50.916;4.698;2022-11-15T15:49:49;12.90;99.90
22073;DHT22;11202;50.916;4.698;2022-11-15T15:52:15;12.80;99.90
22073;DHT22;11202;50.916;4.698;2022-11-15T15:54:41;12.90;99.90
22073;DHT22;11202;50.916;4.698;2022-11-15T15:57:08;12.90;99.90
22073;DHT22;11202;50.916;4.698;2022-11-15T15:59:36;12.90;99.90
22073;DHT22;11202;50.916;4.698;2022-11-15T16:02:02;12.80;99.90
22073;DHT22;11202;50.916;4.698;2022-11-15T16:04:28;12.80;99.90
22073;DHT22;11202;50.916;4.698;2022-11-15T16:07:00;12.80;99.90
22073;DHT22;11202;50.916;4.698;2022-11-15T16:09:26;12.70;99.90
22073;DHT22;11202;50.916;4.698;2022-11-15T16:12:10;12.70;99.90
22073;DHT22;11202;50.916;4.698;2022-11-15T16:14:36;12.70;99.90
22073;DHT22;11202;50.916;4.698;2022-11-15T16:17:04;12.70;99.90
22073;DHT22;11202;50.916;4.698;2022-11-15T16:19:29;12.70;99.90
22073;DHT22;11202;50.916;4.698;2022-11-15T16:21:55;12.70;99.90
22073;DHT22;11202;50.916;4.698;2022-11-15T16:24:20;12.70;99.90
22073;DHT22;11202;50.916;4.698;2022-11-15T16:26:47;12.60;99.90
22073;DHT22;11202;50.916;4.698;2022-11-15T16:29:14;12.60;99.90
22073;DHT22;11202;50.916;4.698;2022-11-15T16:31:42;12.60;99.90
22073;DHT22;11202;50.916;4.698;2022-11-15T16:34:08;12.60;99.90
22073;DHT22;11202;50.916;4.698;2022-11-15T16:36:34;12.60;99.90
22073;DHT22;11202;50.916;4.698;2022-11-15T16:39:01;12.60;99.90
22073;DHT22;11202;50.916;4.698;2022-11-15T16:41:30;12.60;99.90
22073;DHT22;11202;50.916;4.698;2022-11-15T16:43:58;12.50;99.90
22073;DHT22;11202;50.916;4.698;2022-11-15T16:46:25;12.60;99.90
22073;DHT22;11202;50.916;4.698;2022-11-15T16:48:51;12.60;99.90
22073;DHT22;11202;50.916;4.698;2022-11-15T16:51:19;12.60;99.90
22073;DHT22;11202;50.916;4.698;2022-11-15T16:53:45;12.60;99.90
22073;DHT22;11202;50.916;4.698;2022-11-15T16:56:18;12.60;99.90
22073;DHT22;11202;50.916;4.698;2022-11-15T16:58:44;12.60;99.90
22073;DHT22;11202;50.916;4.698;2022-11-15T17:01:18;12.60;99.90
22073;DHT22;11202;50.916;4.698;2022-11-15T17:03:44;12.60;99.90
22073;DHT22;11202;50.916;4.698;2022-11-15T17:06:12;12.60;99.90
22073;DHT22;11202;50.916;4.698;2022-11-15T17:08:38;12.60;99.90
22073;DHT22;11202;50.916;4.698;2022-11-15T17:11:07;12.60;99.90
22073;DHT22;11202;50.916;4.698;2022-11-15T17:13:33;12.60;99.90
22073;DHT22;11202;50.916;4.698;2022-11-15T17:16:10;12.70;99.90
22073;DHT22;11202;50.916;4.698;2022-11-15T17:18:36;12.70;99.90
22073;DHT22;11202;50.916;4.698;2022-11-15T17:21:07;12.70;99.90
22073;DHT22;11202;50.916;4.698;2022-11-15T17:23:33;12.70;99.90
22073;DHT22;11202;50.916;4.698;2022-11-15T17:26:03;12.70;99.90
22073;DHT22;11202;50.916;4.698;2022-11-15T17:28:30;12.70;99.90
22073;DHT22;11202;50.916;4.698;2022-11-15T17:30:56;12.70;99.90
22073;DHT22;11202;50.916;4.698;2022-11-15T17:33:25;12.70;99.90
22073;DHT22;11202;50.916;4.698;2022-11-15T17:36:02;12.60;99.90
22073;DHT22;11202;50.916;4.698;2022-11-15T17:38:28;12.70;99.90
22073;DHT22;11202;50.916;4.698;2022-11-15T17:41:14;12.70;99.90
22073;DHT22;11202;50.916;4.698;2022-11-15T17:43:40;12.70;99.90
22073;DHT22;11202;50.916;4.698;2022-11-15T17:46:09;12.80;99.90
22073;DHT22;11202;50.916;4.698;2022-11-15T17:48:35;12.80;99.90
22073;DHT22;11202;50.916;4.698;2022-11-15T17:51:04;12.80;99.90
22073;DHT22;11202;50.916;4.698;2022-11-15T17:53:39;12.80;99.90
22073;DHT22;11202;50.916;4.698;2022-11-15T17:56:08;12.90;99.90
22073;DHT22;11202;50.916;4.698;2022-11-15T17:58:34;12.80;99.90
22073;DHT22;11202;50.916;4.698;2022-11-15T18:01:26;12.80;99.90
22073;DHT22;11202;50.916;4.698;2022-11-15T18:03:53;12.80;99.90
22073;DHT22;11202;50.916;4.698;2022-11-15T18:06:20;12.90;99.90
22073;DHT22;11202;50.916;4.698;2022-11-15T18:08:49;12.90;99.90